sensor_id;sensor_type;location;lat;lon;timestamp;temperature;humidity
1578;DHT22;57623;53.608;10.004;2023-07-22T00:00:46;14.60;99.90
1578;DHT22;57623;53.608;10.004;2023-07-22T00:03:14;14.60;99.90
1578;DHT22;57623;53.608;10.004;2023-07-22T00:05:42;14.60;99.90
1578;DHT22;57623;53.608;10.004;2023-07-22T00:08:10;14.50;99.90
1578;DHT22;57623;53.608;10.004;2023-07-22T00:10:42;14.50;99.90
1578;DHT22;57623;53.608;10.004;2023-07-22T00:13:10;14.40;99.90
1578;DHT22;57623;53.608;10.004;2023-07-22T00:15:38;14.40;99.90
1578;DHT22;57623;53.608;10.004;2023-07-22T00:18:06;14.40;99.90
1578;DHT22;57623;53.608;10.004;2023-07-22T00:20:34;14.40;99.90
1578;DHT22;57623;53.608;10.004;2023-07-22T00:23:02;14.40;99.90
1578;DHT22;57623;53.608;10.004;2023-07-22T00:25:30;14.40;99.90
1578;DHT22;57623;53.608;10.004;2023-07-22T00:28:00;14.30;99.90
1578;DHT22;57623;53.608;10.004;2023-07-22T00:30:28;14.30;99.90
1578;DHT22;57623;53.608;10.004;2023-07-22T00:32:56;14.30;99.90
1578;DHT22;57623;53.608;10.004;2023-07-22T00:35:24;14.30;99.90
1578;DHT22;57623;53.608;10.004;2023-07-22T00:37:52;14.30;99.90
1578;DHT22;57623;53.608;10.004;2023-07-22T00:40:20;14.30;99.90
1578;DHT22;57623;53.608;10.004;2023-07-22T00:42:49;14.30;99.90
1578;DHT22;57623;53.608;10.004;2023-07-22T00:45:18;14.20;99.90
1578;DHT22;57623;53.608;10.004;2023-07-22T00:47:47;14.20;99.90
1578;DHT22;57623;53.608;10.004;2023-07-22T00:50:16;14.20;99.90
1578;DHT22;57623;53.608;10.004;2023-07-22T00:52:44;14.20;99.90
1578;DHT22;57623;53.608;10.004;2023-07-22T00:55:12;14.20;99.90
1578;DHT22;57623;53.608;10.004;2023-07-22T00:57:41;14.10;99.90
1578;DHT22;57623;53.608;10.004;2023-07-22T01:00:10;14.10;99.90
1578;DHT22;57623;53.608;10.004;2023-07-22T01:02:41;14.10;99.90
1578;DHT22;57623;53.608;10.004;2023-07-22T01:05:10;14.10;99.90
1578;DHT22;57623;53.608;10.004;2023-07-22T01:07:39;14.10;99.90
1578;DHT22;57623;53.608;10.004;2023-07-22T01:10:08;14.10;99.90
1578;DHT22;57623;53.608;10.004;2023-07-22T01:12:36;14.10;99.90
1578;DHT22;57623;53.608;10.004;2023-07-22T01:15:05;14.10;99.90
1578;DHT22;57623;53.608;10.004;2023-07-22T01:17:36;14.10;99.90
1578;DHT22;57623;53.608;10.004;2023-07-22T01:20:07;14.10;99.90
1578;DHT22;57623;53.608;10.004;2023-07-22T01:22:36;14.10;99.90
1578;DHT22;57623;53.608;10.004;2023-07-22T01:25:07;14.00;99.90
1578;DHT22;57623;53.608;10.004;2023-07-22T01:27:36;14.00;99.90
1578;DHT22;57623;53.608;10.004;2023-07-22T01:30:04;14.00;99.90
1578;DHT22;57623;53.608;10.004;2023-07-22T01:32:34;13.90;99.90
1578;DHT22;57623;53.608;10.004;2023-07-22T01:35:02;13.90;99.90
1578;DHT22;57623;53.608;10.004;2023-07-22T01:37:30;13.90;99.90
1578;DHT22;57623;53.608;10.004;2023-07-22T01:39:58;13.90;99.90
1578;DHT22;57623;53.608;10.004;2023-07-22T01:42:28;13.90;99.90
1578;DHT22;57623;53.608;10.004;2023-07-22T01:44:56;13.90;99.90
1578;DHT22;57623;53.608;10.004;2023-07-22T01:47:23;13.90;99.90
1578;DHT22;57623;53.608;10.004;2023-07-22T01:49:53;13.80;99.90
1578;DHT22;57623;53.608;10.004;2023-07-22T01:52:21;13.80;99.90
1578;DHT22;57623;53.608;10.004;2023-07-22T01:54:49;13.70;99.90
1578;DHT22;57623;53.608;10.004;2023-07-22T01:57:17;13.70;99.90
1578;DHT22;57623;53.608;10.004;2023-07-22T01:59:46;13.80;99.90
1578;DHT22;57623;53.608;10.004;2023-07-22T02:02:14;13.80;99.90
1578;DHT22;57623;53.608;10.004;2023-07-22T02:04:42;13.70;99.90
1578;DHT22;57623;53.608;10.004;2023-07-22T02:07:10;13.70;99.90
1578;DHT22;57623;53.608;10.004;2023-07-22T02:09:38;13.70;99.90
1578;DHT22;57623;53.608;10.004;2023-07-22T02:12:08;13.70;99.90
1578;DHT22;57623;53.608;10.004;2023-07-22T02:14:37;13.70;99.90
1578;DHT22;57623;53.608;10.004;2023-07-22T02:17:06;13.60;99.90
1578;DHT22;57623;53.608;10.004;2023-07-22T02:19:36;13.60;99.90
1578;DHT22;57623;53.608;10.004;2023-07-22T02:22:04;13.60;99.90
1578;DHT22;57623;53.608;10.004;2023-07-22T02:24:32;13.60;99.90
1578;DHT22;57623;53.608;10.004;2023-07-22T02:27:00;13.60;99.90
1578;DHT22;57623;53.608;10.004;2023-07-22T02:29:28;13.60;99.90
1578;DHT22;57623;53.608;10.004;2023-07-22T02:31:58;13.60;99.90
1578;DHT22;57623;53.608;10.004;2023-07-22T02:34:27;13.60;99.90
1578;DHT22;57623;53.608;10.004;2023-07-22T02:36:55;13.60;99.90
1578;DHT22;57623;53.608;10.004;2023-07-22T02:39:23;13.50;99.90
1578;DHT22;57623;53.608;10.004;2023-07-22T02:41:51;13.50;99.90
1578;DHT22;57623;53.608;10.004;2023-07-22T02:44:19;13.50;99.90
1578;DHT22;57623;53.608;10.004;2023-07-22T02:46:47;13.50;99.90
1578;DHT22;57623;53.608;10.004;2023-07-22T02:49:15;13.40;99.90
1578;DHT22;57623;53.608;10.004;2023-07-22T02:51:45;13.40;99.90
1578;DHT22;57623;53.608;10.004;2023-07-22T02:54:13;13.40;99.90
1578;DHT22;57623;53.608;10.004;2023-07-22T02:56:41;13.40;99.90
1578;DHT22;57623;53.608;10.004;2023-07-22T02:59:09;13.40;99.90
1578;DHT22;57623;53.608;10.004;2023-07-22T03:01:38;13.40;99.90
1578;DHT22;57623;53.608;10.004;2023-07-22T03:04:06;13.40;99.90
1578;DHT22;57623;53.608;10.004;2023-07-22T03:06:34;13.40;99.90
1578;DHT22;57623;53.608;10.004;2023-07-22T03:09:04;13.30;99.90
1578;DHT22;57623;53.608;10.004;2023-07-22T03:11:33;13.30;99.90
1578;DHT22;57623;53.608;10.004;2023-07-22T03:14:01;13.30;99.90
1578;DHT22;57623;53.608;10.004;2023-07-22T03:16:29;13.40;99.90
1578;DHT22;57623;53.608;10.004;2023-07-22T03:18:58;13.40;99.90
1578;DHT22;57623;53.608;10.004;2023-07-22T03:21:26;13.40;99.90
1578;DHT22;57623;53.608;10.004;2023-07-22T03:23:54;13.40;99.90
1578;DHT22;57623;53.608;10.004;2023-07-22T03:26:24;13.30;99.90
1578;DHT22;57623;53.608;10.004;2023-07-22T03:28:52;13.30;99.90
1578;DHT22;57623;53.608;10.004;2023-07-22T03:31:21;13.30;99.90
1578;DHT22;57623;53.608;10.004;2023-07-22T03:33:49;13.30;99.90
1578;DHT22;57623;53.608;10.004;2023-07-22T03:36:17;13.30;99.90
1578;DHT22;57623;53.608;10.004;2023-07-22T03:38:45;13.30;99.90
1578;DHT22;57623;53.608;10.004;2023-07-22T03:41:13;13.30;99.90
1578;DHT22;57623;53.608;10.004;2023-07-22T03:43:42;13.30;99.90
1578;DHT22;57623;53.608;10.004;2023-07-22T03:46:10;13.30;99.90
1578;DHT22;57623;53.608;10.004;2023-07-22T03:48:38;13.30;99.90
1578;DHT22;57623;53.608;10.004;2023-07-22T03:51:06;13.30;99.90
1578;DHT22;57623;53.608;10.004;2023-07-22T03:53:46;13.30;99.90
1578;DHT22;57623;53.608;10.004;2023-07-22T03:56:14;13.30;99.90
1578;DHT22;57623;53.608;10.004;2023-07-22T03:58:43;13.30;99.90
1578;DHT22;57623;53.608;10.004;2023-07-22T04:01:11;13.30;99.90
1578;DHT22;57623;53.608;10.004;2023-07-22T04:03:39;13.40;99.90
1578;DHT22;57623;53.608;10.004;2023-07-22T04:06:07;13.40;99.90
1578;DHT22;57623;53.608;10.004;2023-07-22T04:08:35;13.40;99.90
1578;DHT22;57623;53.608;10.004;2023-07-22T04:11:04;13.50;99.90
1578;DHT22;57623;53.608;10.004;2023-07-22T04:13:32;13.50;99.90
1578;DHT22;57623;53.608;10.004;2023-07-22T04:16:01;13.60;99.90
1578;DHT22;57623;53.608;10.004;2023-07-22T04:18:29;13.60;99.90
1578;DHT22;57623;53.608;10.004;2023-07-22T04:21:01;13.60;99.90
1578;DHT22;57623;53.608;10.004;2023-07-22T04:23:29;13.60;99.90
1578;DHT22;57623;53.608;10.004;2023-07-22T04:26:02;13.50;99.90
1578;DHT22;57623;53.608;10.004;2023-07-22T04:28:31;13.50;99.90
1578;DHT22;57623;53.608;10.004;2023-07-22T04:31:00;13.50;99.90
1578;DHT22;57623;53.608;10.004;2023-07-22T04:33:29;13.50;99.90
1578;DHT22;57623;53.608;10.004;2023-07-22T04:35:58;13.60;99.90
1578;DHT22;57623;53.608;10.004;2023-07-22T04:38:27;13.60;99.90
1578;DHT22;57623;53.608;10.004;2023-07-22T04:40:55;13.60;99.90
1578;DHT22;57623;53.608;10.004;2023-07-22T04:43:23;13.70;99.90
1578;DHT22;57623;53.608;10.004;2023-07-22T04:45:51;13.70;99.90
1578;DHT22;57623;53.608;10.004;2023-07-22T04:48:21;13.70;99.90
1578;DHT22;57623;53.608;10.004;2023-07-22T04:50:50;13.70;99.90
1578;DHT22;57623;53.608;10.004;2023-07-22T04:53:19;13.70;99.90
1578;DHT22;57623;53.608;10.004;2023-07-22T04:55:47;13.70;99.90
1578;DHT22;57623;53.608;10.004;2023-07-22T04:58:15;13.80;99.90
1578;DHT22;57623;53.608;10.004;2023-07-22T05:00:43;13.80;99.90
1578;DHT22;57623;53.608;10.004;2023-07-22T05:03:11;13.80;99.90
1578;DHT22;57623;53.608;10.004;2023-07-22T05:05:41;13.90;99.90
1578;DHT22;57623;53.608;10.004;2023-07-22T05:08:10;13.80;99.90
1578;DHT22;57623;53.608;10.004;2023-07-22T05:10:38;13.90;99.90
1578;DHT22;57623;53.608;10.004;2023-07-22T05:13:06;13.90;99.90
1578;DHT22;57623;53.608;10.004;2023-07-22T05:15:34;13.90;99.90
1578;DHT22;57623;53.608;10.004;2023-07-22T05:18:02;13.90;99.90
1578;DHT22;57623;53.608;10.004;2023-07-22T05:20:30;14.00;99.90
1578;DHT22;57623;53.608;10.004;2023-07-22T05:23:00;14.10;99.90
1578;DHT22;57623;53.608;10.004;2023-07-22T05:25:28;14.10;99.90
1578;DHT22;57623;53.608;10.004;2023-07-22T05:27:56;14.10;99.90
1578;DHT22;57623;53.608;10.004;2023-07-22T05:30:24;14.10;99.90
1578;DHT22;57623;53.608;10.004;2023-07-22T05:33:02;14.10;99.90
1578;DHT22;57623;53.608;10.004;2023-07-22T05:35:30;14.20;99.90
1578;DHT22;57623;53.608;10.004;2023-07-22T05:37:59;14.20;99.90
1578;DHT22;57623;53.608;10.004;2023-07-22T05:40:30;14.20;99.90
1578;DHT22;57623;53.608;10.004;2023-07-22T05:42:58;14.20;99.90
1578;DHT22;57623;53.608;10.004;2023-07-22T05:45:26;14.20;99.90
1578;DHT22;57623;53.608;10.004;2023-07-22T05:47:54;14.30;99.90
1578;DHT22;57623;53.608;10.004;2023-07-22T05:50:22;14.30;99.90
1578;DHT22;57623;53.608;10.004;2023-07-22T05:52:50;14.40;99.90
1578;DHT22;57623;53.608;10.004;2023-07-22T05:55:20;14.40;99.90
1578;DHT22;57623;53.608;10.004;2023-07-22T05:57:48;14.40;99.90
1578;DHT22;57623;53.608;10.004;2023-07-22T06:00:16;14.50;99.90
1578;DHT22;57623;53.608;10.004;2023-07-22T06:02:44;14.40;99.90
1578;DHT22;57623;53.608;10.004;2023-07-22T06:05:12;14.50;99.90
1578;DHT22;57623;53.608;10.004;2023-07-22T06:07:40;14.50;99.90
1578;DHT22;57623;53.608;10.004;2023-07-22T06:10:08;14.50;99.90
1578;DHT22;57623;53.608;10.004;2023-07-22T06:12:38;14.50;99.90
1578;DHT22;57623;53.608;10.004;2023-07-22T06:15:09;14.60;99.90
1578;DHT22;57623;53.608;10.004;2023-07-22T06:17:37;14.60;99.90
1578;DHT22;57623;53.608;10.004;2023-07-22T06:20:06;14.70;99.90
1578;DHT22;57623;53.608;10.004;2023-07-22T06:22:34;14.70;99.90
1578;DHT22;57623;53.608;10.004;2023-07-22T06:25:02;14.80;99.90
1578;DHT22;57623;53.608;10.004;2023-07-22T06:27:31;14.90;99.90
1578;DHT22;57623;53.608;10.004;2023-07-22T06:30:00;14.90;99.90
1578;DHT22;57623;53.608;10.004;2023-07-22T06:32:28;15.00;99.90
1578;DHT22;57623;53.608;10.004;2023-07-22T06:34:57;15.00;99.90
1578;DHT22;57623;53.608;10.004;2023-07-22T06:37:26;15.10;99.90
1578;DHT22;57623;53.608;10.004;2023-07-22T06:39:53;15.10;99.90
1578;DHT22;57623;53.608;10.004;2023-07-22T06:42:21;15.00;99.90
1578;DHT22;57623;53.608;10.004;2023-07-22T06:44:50;15.00;99.90
1578;DHT22;57623;53.608;10.004;2023-07-22T06:47:19;15.00;99.90
1578;DHT22;57623;53.608;10.004;2023-07-22T06:49:47;15.10;99.90
1578;DHT22;57623;53.608;10.004;2023-07-22T06:52:15;15.20;99.90
1578;DHT22;57623;53.608;10.004;2023-07-22T06:54:43;15.30;99.90
1578;DHT22;57623;53.608;10.004;2023-07-22T06:57:11;15.40;99.90
1578;DHT22;57623;53.608;10.004;2023-07-22T06:59:39;15.40;99.90
1578;DHT22;57623;53.608;10.004;2023-07-22T07:02:07;15.50;99.90
1578;DHT22;57623;53.608;10.004;2023-07-22T07:04:37;15.60;99.90
1578;DHT22;57623;53.608;10.004;2023-07-22T07:07:05;15.70;99.90
1578;DHT22;57623;53.608;10.004;2023-07-22T07:09:35;15.70;99.90
1578;DHT22;57623;53.608;10.004;2023-07-22T07:12:03;15.80;99.90
1578;DHT22;57623;53.608;10.004;2023-07-22T07:14:32;15.80;99.90
1578;DHT22;57623;53.608;10.004;2023-07-22T07:17:01;15.90;99.90
1578;DHT22;57623;53.608;10.004;2023-07-22T07:19:29;15.90;99.90
1578;DHT22;57623;53.608;10.004;2023-07-22T07:21:58;16.00;99.90
1578;DHT22;57623;53.608;10.004;2023-07-22T07:24:26;16.10;99.90
1578;DHT22;57623;53.608;10.004;2023-07-22T07:26:55;16.00;99.90
1578;DHT22;57623;53.608;10.004;2023-07-22T07:29:23;16.10;99.90
1578;DHT22;57623;53.608;10.004;2023-07-22T07:32:11;16.10;99.90
1578;DHT22;57623;53.608;10.004;2023-07-22T07:34:39;16.20;99.90
1578;DHT22;57623;53.608;10.004;2023-07-22T07:37:08;16.30;99.90
1578;DHT22;57623;53.608;10.004;2023-07-22T07:39:36;16.40;99.90
1578;DHT22;57623;53.608;10.004;2023-07-22T07:42:05;16.40;99.90
1578;DHT22;57623;53.608;10.004;2023-07-22T07:44:33;16.40;99.90
1578;DHT22;57623;53.608;10.004;2023-07-22T07:47:01;16.50;99.90
1578;DHT22;57623;53.608;10.004;2023-07-22T07:49:29;16.50;99.90
1578;DHT22;57623;53.608;10.004;2023-07-22T07:51:57;16.50;99.90
1578;DHT22;57623;53.608;10.004;2023-07-22T07:54:26;16.60;99.90
1578;DHT22;57623;53.608;10.004;2023-07-22T07:56:58;16.60;99.90
1578;DHT22;57623;53.608;10.004;2023-07-22T07:59:26;16.70;99.90
1578;DHT22;57623;53.608;10.004;2023-07-22T08:01:54;16.70;99.90
1578;DHT22;57623;53.608;10.004;2023-07-22T08:04:22;16.70;99.90
1578;DHT22;57623;53.608;10.004;2023-07-22T08:06:50;16.60;99.90
1578;DHT22;57623;53.608;10.004;2023-07-22T08:09:18;16.70;99.90
1578;DHT22;57623;53.608;10.004;2023-07-22T08:11:48;16.80;99.90
1578;DHT22;57623;53.608;10.004;2023-07-22T08:14:16;16.90;99.90
1578;DHT22;57623;53.608;10.004;2023-07-22T08:16:45;17.00;99.90
1578;DHT22;57623;53.608;10.004;2023-07-22T08:19:13;17.10;99.90
1578;DHT22;57623;53.608;10.004;2023-07-22T08:21:41;17.20;99.90
1578;DHT22;57623;53.608;10.004;2023-07-22T08:24:09;17.30;99.90
1578;DHT22;57623;53.608;10.004;2023-07-22T08:26:37;17.20;99.90
1578;DHT22;57623;53.608;10.004;2023-07-22T08:29:06;17.20;99.90
1578;DHT22;57623;53.608;10.004;2023-07-22T08:31:34;17.30;99.90
1578;DHT22;57623;53.608;10.004;2023-07-22T08:34:03;17.30;99.90
1578;DHT22;57623;53.608;10.004;2023-07-22T08:36:31;17.30;99.90
1578;DHT22;57623;53.608;10.004;2023-07-22T08:38:59;17.40;99.90
1578;DHT22;57623;53.608;10.004;2023-07-22T08:41:27;17.40;99.90
1578;DHT22;57623;53.608;10.004;2023-07-22T08:43:57;17.30;99.90
1578;DHT22;57623;53.608;10.004;2023-07-22T08:46:29;17.30;99.90
1578;DHT22;57623;53.608;10.004;2023-07-22T08:48:59;17.30;99.90
1578;DHT22;57623;53.608;10.004;2023-07-22T08:51:29;17.30;99.90
1578;DHT22;57623;53.608;10.004;2023-07-22T08:53:59;17.30;99.90
1578;DHT22;57623;53.608;10.004;2023-07-22T08:56:38;17.30;99.90
1578;DHT22;57623;53.608;10.004;2023-07-22T08:59:06;17.40;99.90
1578;DHT22;57623;53.608;10.004;2023-07-22T09:01:37;17.60;99.90
1578;DHT22;57623;53.608;10.004;2023-07-22T09:04:07;17.70;99.90
1578;DHT22;57623;53.608;10.004;2023-07-22T09:06:36;17.70;99.90
1578;DHT22;57623;53.608;10.004;2023-07-22T09:09:04;17.70;99.90
1578;DHT22;57623;53.608;10.004;2023-07-22T09:11:35;17.80;99.90
1578;DHT22;57623;53.608;10.004;2023-07-22T09:14:03;17.90;99.90
1578;DHT22;57623;53.608;10.004;2023-07-22T09:16:32;18.00;99.90
1578;DHT22;57623;53.608;10.004;2023-07-22T09:19:03;18.00;99.90
1578;DHT22;57623;53.608;10.004;2023-07-22T09:21:31;18.10;99.90
1578;DHT22;57623;53.608;10.004;2023-07-22T09:24:03;18.20;99.90
1578;DHT22;57623;53.608;10.004;2023-07-22T09:26:46;18.30;99.90
1578;DHT22;57623;53.608;10.004;2023-07-22T09:29:15;18.30;99.90
1578;DHT22;57623;53.608;10.004;2023-07-22T09:31:50;18.30;99.90
1578;DHT22;57623;53.608;10.004;2023-07-22T09:34:20;18.30;99.90
1578;DHT22;57623;53.608;10.004;2023-07-22T09:36:51;18.40;99.90
1578;DHT22;57623;53.608;10.004;2023-07-22T09:39:19;18.50;99.90
1578;DHT22;57623;53.608;10.004;2023-07-22T09:41:47;18.60;99.90
1578;DHT22;57623;53.608;10.004;2023-07-22T09:44:16;18.80;99.90
1578;DHT22;57623;53.608;10.004;2023-07-22T09:46:47;18.90;99.90
1578;DHT22;57623;53.608;10.004;2023-07-22T09:49:17;18.90;99.90
1578;DHT22;57623;53.608;10.004;2023-07-22T09:51:46;18.90;99.90
1578;DHT22;57623;53.608;10.004;2023-07-22T09:54:28;18.80;99.90
1578;DHT22;57623;53.608;10.004;2023-07-22T09:56:58;18.80;99.90
1578;DHT22;57623;53.608;10.004;2023-07-22T09:59:28;18.90;99.90
1578;DHT22;57623;53.608;10.004;2023-07-22T10:01:57;19.00;99.90
1578;DHT22;57623;53.608;10.004;2023-07-22T10:04:32;19.20;99.90
1578;DHT22;57623;53.608;10.004;2023-07-22T10:07:03;19.30;99.90
1578;DHT22;57623;53.608;10.004;2023-07-22T10:09:33;19.40;99.90
1578;DHT22;57623;53.608;10.004;2023-07-22T10:12:03;19.40;99.90
1578;DHT22;57623;53.608;10.004;2023-07-22T10:14:32;19.50;99.90
1578;DHT22;57623;53.608;10.004;2023-07-22T10:17:05;19.50;99.90
1578;DHT22;57623;53.608;10.004;2023-07-22T10:19:34;19.50;99.90
1578;DHT22;57623;53.608;10.004;2023-07-22T10:22:05;19.50;99.90
1578;DHT22;57623;53.608;10.004;2023-07-22T10:24:35;19.50;99.90
1578;DHT22;57623;53.608;10.004;2023-07-22T10:27:04;19.50;99.90
1578;DHT22;57623;53.608;10.004;2023-07-22T10:29:34;19.50;99.90
1578;DHT22;57623;53.608;10.004;2023-07-22T10:32:02;19.30;99.90
1578;DHT22;57623;53.608;10.004;2023-07-22T10:34:31;19.30;99.90
1578;DHT22;57623;53.608;10.004;2023-07-22T10:36:59;19.40;99.90
1578;DHT22;57623;53.608;10.004;2023-07-22T10:39:29;19.50;99.90
1578;DHT22;57623;53.608;10.004;2023-07-22T10:42:00;19.60;99.90
1578;DHT22;57623;53.608;10.004;2023-07-22T10:44:32;19.70;99.90
1578;DHT22;57623;53.608;10.004;2023-07-22T10:47:00;19.70;99.90
1578;DHT22;57623;53.608;10.004;2023-07-22T10:49:43;19.70;99.90
1578;DHT22;57623;53.608;10.004;2023-07-22T10:52:12;19.70;99.90
1578;DHT22;57623;53.608;10.004;2023-07-22T10:54:42;19.80;99.90
1578;DHT22;57623;53.608;10.004;2023-07-22T10:57:31;20.00;99.90
1578;DHT22;57623;53.608;10.004;2023-07-22T10:59:59;20.10;99.90
1578;DHT22;57623;53.608;10.004;2023-07-22T11:02:29;20.20;99.90
1578;DHT22;57623;53.608;10.004;2023-07-22T11:04:57;20.20;99.90
1578;DHT22;57623;53.608;10.004;2023-07-22T11:07:31;20.30;99.90
1578;DHT22;57623;53.608;10.004;2023-07-22T11:10:12;20.20;99.90
1578;DHT22;57623;53.608;10.004;2023-07-22T11:12:42;20.20;99.90
1578;DHT22;57623;53.608;10.004;2023-07-22T11:15:11;20.30;99.90
1578;DHT22;57623;53.608;10.004;2023-07-22T11:17:39;20.40;99.90
1578;DHT22;57623;53.608;10.004;2023-07-22T11:20:07;20.40;99.90
1578;DHT22;57623;53.608;10.004;2023-07-22T11:22:39;20.50;99.90
1578;DHT22;57623;53.608;10.004;2023-07-22T11:25:09;20.60;99.90
1578;DHT22;57623;53.608;10.004;2023-07-22T11:27:37;20.70;99.90
1578;DHT22;57623;53.608;10.004;2023-07-22T11:30:06;20.80;99.90
1578;DHT22;57623;53.608;10.004;2023-07-22T11:32:34;20.80;99.90
1578;DHT22;57623;53.608;10.004;2023-07-22T11:35:02;20.60;99.90
1578;DHT22;57623;53.608;10.004;2023-07-22T11:37:30;20.40;99.90
1578;DHT22;57623;53.608;10.004;2023-07-22T11:40:00;20.20;99.90
1578;DHT22;57623;53.608;10.004;2023-07-22T11:42:30;20.30;99.90
1578;DHT22;57623;53.608;10.004;2023-07-22T11:45:00;20.50;99.90
1578;DHT22;57623;53.608;10.004;2023-07-22T11:47:29;20.80;99.90
1578;DHT22;57623;53.608;10.004;2023-07-22T11:49:58;20.90;99.90
1578;DHT22;57623;53.608;10.004;2023-07-22T11:52:26;21.10;99.90
1578;DHT22;57623;53.608;10.004;2023-07-22T11:55:01;21.20;99.90
1578;DHT22;57623;53.608;10.004;2023-07-22T11:57:31;21.30;99.90
1578;DHT22;57623;53.608;10.004;2023-07-22T11:59:59;21.40;99.90
1578;DHT22;57623;53.608;10.004;2023-07-22T12:02:28;21.50;99.90
1578;DHT22;57623;53.608;10.004;2023-07-22T12:04:59;21.60;99.90
1578;DHT22;57623;53.608;10.004;2023-07-22T12:07:29;21.60;99.90
1578;DHT22;57623;53.608;10.004;2023-07-22T12:09:58;21.70;99.90
1578;DHT22;57623;53.608;10.004;2023-07-22T12:12:38;21.70;99.90
1578;DHT22;57623;53.608;10.004;2023-07-22T12:15:10;21.70;99.90
1578;DHT22;57623;53.608;10.004;2023-07-22T12:17:44;21.50;99.90
1578;DHT22;57623;53.608;10.004;2023-07-22T12:20:13;21.50;99.90
1578;DHT22;57623;53.608;10.004;2023-07-22T12:22:42;21.50;99.90
1578;DHT22;57623;53.608;10.004;2023-07-22T12:25:10;21.60;99.90
1578;DHT22;57623;53.608;10.004;2023-07-22T12:27:39;21.80;99.90
1578;DHT22;57623;53.608;10.004;2023-07-22T12:30:08;21.80;99.90
1578;DHT22;57623;53.608;10.004;2023-07-22T12:32:36;21.70;99.90
1578;DHT22;57623;53.608;10.004;2023-07-22T12:35:05;21.50;99.90
1578;DHT22;57623;53.608;10.004;2023-07-22T12:37:34;21.20;99.90
1578;DHT22;57623;53.608;10.004;2023-07-22T12:40:02;21.10;99.90
1578;DHT22;57623;53.608;10.004;2023-07-22T12:42:32;21.00;99.90
1578;DHT22;57623;53.608;10.004;2023-07-22T12:45:02;20.90;99.90
1578;DHT22;57623;53.608;10.004;2023-07-22T12:47:30;20.90;99.90
1578;DHT22;57623;53.608;10.004;2023-07-22T12:49:58;20.80;99.90
1578;DHT22;57623;53.608;10.004;2023-07-22T12:52:27;20.70;99.90
1578;DHT22;57623;53.608;10.004;2023-07-22T12:54:55;20.50;99.90
1578;DHT22;57623;53.608;10.004;2023-07-22T12:57:23;20.40;99.90
1578;DHT22;57623;53.608;10.004;2023-07-22T12:59:51;20.30;99.90
1578;DHT22;57623;53.608;10.004;2023-07-22T13:02:20;20.20;99.90
1578;DHT22;57623;53.608;10.004;2023-07-22T13:04:49;20.10;99.90
1578;DHT22;57623;53.608;10.004;2023-07-22T13:07:17;20.10;99.90
1578;DHT22;57623;53.608;10.004;2023-07-22T13:09:45;19.90;99.90
1578;DHT22;57623;53.608;10.004;2023-07-22T13:12:15;19.60;99.90
1578;DHT22;57623;53.608;10.004;2023-07-22T13:14:43;19.40;99.90
1578;DHT22;57623;53.608;10.004;2023-07-22T13:17:11;19.30;99.90
1578;DHT22;57623;53.608;10.004;2023-07-22T13:19:40;19.00;99.90
1578;DHT22;57623;53.608;10.004;2023-07-22T13:22:08;18.80;99.90
1578;DHT22;57623;53.608;10.004;2023-07-22T13:24:36;18.70;99.90
1578;DHT22;57623;53.608;10.004;2023-07-22T13:27:05;18.70;99.90
1578;DHT22;57623;53.608;10.004;2023-07-22T13:29:34;18.80;99.90
1578;DHT22;57623;53.608;10.004;2023-07-22T13:32:02;18.70;99.90
1578;DHT22;57623;53.608;10.004;2023-07-22T13:34:30;18.70;99.90
1578;DHT22;57623;53.608;10.004;2023-07-22T13:37:00;18.60;99.90
1578;DHT22;57623;53.608;10.004;2023-07-22T13:39:29;18.60;99.90
1578;DHT22;57623;53.608;10.004;2023-07-22T13:41:57;18.60;99.90
1578;DHT22;57623;53.608;10.004;2023-07-22T13:44:25;18.60;99.90
1578;DHT22;57623;53.608;10.004;2023-07-22T13:46:53;18.50;99.90
1578;DHT22;57623;53.608;10.004;2023-07-22T13:49:21;18.30;99.90
1578;DHT22;57623;53.608;10.004;2023-07-22T13:51:49;18.30;99.90
1578;DHT22;57623;53.608;10.004;2023-07-22T13:54:18;18.20;99.90
1578;DHT22;57623;53.608;10.004;2023-07-22T13:56:47;18.20;99.90
1578;DHT22;57623;53.608;10.004;2023-07-22T13:59:15;18.20;99.90
1578;DHT22;57623;53.608;10.004;2023-07-22T14:01:43;18.40;99.90
1578;DHT22;57623;53.608;10.004;2023-07-22T14:04:11;18.50;99.90
1578;DHT22;57623;53.608;10.004;2023-07-22T14:06:39;18.50;99.90
1578;DHT22;57623;53.608;10.004;2023-07-22T14:09:07;18.60;99.90
1578;DHT22;57623;53.608;10.004;2023-07-22T14:11:36;18.60;99.90
1578;DHT22;57623;53.608;10.004;2023-07-22T14:14:08;18.70;99.90
1578;DHT22;57623;53.608;10.004;2023-07-22T14:16:36;18.80;99.90
1578;DHT22;57623;53.608;10.004;2023-07-22T14:19:04;18.80;99.90
1578;DHT22;57623;53.608;10.004;2023-07-22T14:21:32;18.80;99.90
1578;DHT22;57623;53.608;10.004;2023-07-22T14:24:00;18.90;99.90
1578;DHT22;57623;53.608;10.004;2023-07-22T14:26:28;19.00;99.90
1578;DHT22;57623;53.608;10.004;2023-07-22T14:28:57;19.00;99.90
1578;DHT22;57623;53.608;10.004;2023-07-22T14:31:25;19.20;99.90
1578;DHT22;57623;53.608;10.004;2023-07-22T14:33:54;19.30;99.90
1578;DHT22;57623;53.608;10.004;2023-07-22T14:36:22;19.30;99.90
1578;DHT22;57623;53.608;10.004;2023-07-22T14:38:51;19.30;99.90
1578;DHT22;57623;53.608;10.004;2023-07-22T14:41:19;19.20;99.90
1578;DHT22;57623;53.608;10.004;2023-07-22T14:43:47;19.20;99.90
1578;DHT22;57623;53.608;10.004;2023-07-22T14:46:16;19.10;99.90
1578;DHT22;57623;53.608;10.004;2023-07-22T14:48:44;19.10;99.90
1578;DHT22;57623;53.608;10.004;2023-07-22T14:51:12;19.10;99.90
1578;DHT22;57623;53.608;10.004;2023-07-22T14:53:40;19.10;99.90
1578;DHT22;57623;53.608;10.004;2023-07-22T14:56:09;19.00;99.90
1578;DHT22;57623;53.608;10.004;2023-07-22T14:58:37;18.90;99.90
1578;DHT22;57623;53.608;10.004;2023-07-22T15:01:05;18.70;99.90
1578;DHT22;57623;53.608;10.004;2023-07-22T15:03:34;18.60;99.90
1578;DHT22;57623;53.608;10.004;2023-07-22T15:06:03;18.60;99.90
1578;DHT22;57623;53.608;10.004;2023-07-22T15:08:31;18.60;99.90
1578;DHT22;57623;53.608;10.004;2023-07-22T15:10:59;18.60;99.90
1578;DHT22;57623;53.608;10.004;2023-07-22T15:13:27;18.60;99.90
1578;DHT22;57623;53.608;10.004;2023-07-22T15:15:55;18.40;99.90
1578;DHT22;57623;53.608;10.004;2023-07-22T15:18:23;18.30;99.90
1578;DHT22;57623;53.608;10.004;2023-07-22T15:20:53;18.30;99.90
1578;DHT22;57623;53.608;10.004;2023-07-22T15:23:21;18.40;99.90
1578;DHT22;57623;53.608;10.004;2023-07-22T15:25:51;18.40;99.90
1578;DHT22;57623;53.608;10.004;2023-07-22T15:28:19;18.40;99.90
1578;DHT22;57623;53.608;10.004;2023-07-22T15:30:47;18.30;99.90
1578;DHT22;57623;53.608;10.004;2023-07-22T15:33:16;18.40;99.90
1578;DHT22;57623;53.608;10.004;2023-07-22T15:35:44;18.30;99.90
1578;DHT22;57623;53.608;10.004;2023-07-22T15:38:13;18.30;99.90
1578;DHT22;57623;53.608;10.004;2023-07-22T15:40:42;18.20;99.90